createdAt,value
2023-01-29T00:00:20.465Z,55.39
2023-01-29T00:01:20.430Z,55.36
2023-01-29T00:02:20.479Z,56.17
2023-01-29T00:03:20.443Z,54.20
2023-01-29T00:04:20.387Z,54.66
2023-01-29T00:05:28.006Z,56.36
2023-01-29T00:06:22.394Z,56.39
2023-01-29T00:07:20.347Z,55.83
2023-01-29T00:08:20.359Z,53.95
2023-01-29T00:09:20.320Z,52.40
2023-01-29T00:10:20.286Z,58.75
2023-01-29T00:11:20.291Z,53.25
2023-01-29T00:12:20.248Z,56.49
2023-01-29T00:13:20.341Z,56.16
2023-01-29T00:14:20.229Z,54.92
2023-01-29T00:15:20.210Z,55.17
2023-01-29T00:16:20.178Z,55.15
2023-01-29T00:17:20.228Z,57.73
2023-01-29T00:18:20.151Z,55.52
2023-01-29T00:19:20.173Z,56.24
2023-01-29T00:20:20.233Z,52.42
2023-01-29T00:21:20.096Z,56.16
2023-01-29T00:22:20.098Z,55.62
2023-01-29T00:23:20.064Z,53.67
2023-01-29T00:24:20.246Z,53.04
2023-01-29T00:25:20.042Z,50.10
2023-01-29T00:26:20.014Z,53.61
2023-01-29T00:27:19.989Z,56.10
2023-01-29T00:28:19.992Z,53.26
2023-01-29T00:29:19.995Z,58.27
2023-01-29T00:30:20.380Z,52.02
2023-01-29T00:31:20.055Z,54.29
2023-01-29T00:32:19.982Z,55.89
2023-01-29T00:33:19.880Z,53.71
2023-01-29T00:34:19.903Z,55.31
2023-01-29T00:35:19.860Z,54.77
2023-01-29T00:36:19.845Z,56.38
2023-01-29T00:37:19.812Z,51.73
2023-01-29T00:38:19.796Z,56.62
2023-01-29T00:39:19.881Z,57.00
2023-01-29T00:40:19.930Z,52.69
2023-01-29T00:41:19.743Z,49.67
2023-01-29T00:42:19.732Z,54.94
2023-01-29T00:43:19.706Z,55.08
2023-01-29T00:44:19.721Z,58.15
2023-01-29T00:45:19.720Z,57.05
2023-01-29T00:46:19.678Z,51.40
2023-01-29T00:47:19.635Z,51.01
2023-01-29T00:48:19.631Z,56.41
2023-01-29T00:49:19.634Z,61.87
2023-01-29T00:50:19.780Z,58.38
2023-01-29T00:51:19.575Z,56.85
2023-01-29T00:52:19.600Z,58.37
2023-01-29T00:53:19.650Z,57.04
2023-01-29T00:54:45.917Z,58.27
2023-01-29T00:55:19.537Z,63.43
2023-01-29T00:56:19.571Z,59.04
2023-01-29T00:57:19.499Z,58.07
2023-01-29T00:58:19.464Z,56.45
2023-01-29T00:59:19.476Z,51.58
2023-01-29T01:00:19.579Z,58.09
2023-01-29T01:01:19.402Z,54.39
2023-01-29T01:02:19.432Z,58.70
2023-01-29T01:03:19.361Z,51.48
2023-01-29T01:04:19.419Z,56.15
2023-01-29T01:05:19.348Z,52.18
2023-01-29T01:06:19.320Z,49.00
2023-01-29T01:07:19.289Z,53.65
2023-01-29T01:08:19.281Z,58.21
2023-01-29T01:09:19.299Z,56.41
2023-01-29T01:10:19.230Z,54.40
2023-01-29T01:11:19.225Z,52.87
2023-01-29T01:12:19.203Z,51.78
2023-01-29T01:13:19.202Z,52.17
2023-01-29T01:14:19.206Z,54.56
2023-01-29T01:15:19.149Z,53.11
2023-01-29T01:16:19.208Z,51.54
2023-01-29T01:17:19.135Z,56.83
2023-01-29T01:18:19.133Z,53.96
2023-01-29T01:19:19.142Z,52.12
2023-01-29T01:20:19.265Z,54.62
2023-01-29T01:21:19.056Z,52.34
2023-01-29T01:22:19.036Z,51.87
2023-01-29T01:23:19.026Z,54.25
2023-01-29T01:24:19.066Z,55.56
2023-01-29T01:25:18.987Z,56.29
2023-01-29T01:26:18.960Z,52.53
2023-01-29T01:27:18.948Z,54.78
2023-01-29T01:28:18.943Z,54.89
2023-01-29T01:29:18.963Z,55.29
2023-01-29T01:30:19.289Z,57.82
2023-01-29T01:31:19.055Z,53.81
2023-01-29T01:32:18.857Z,54.68
2023-01-29T01:33:18.843Z,54.25
2023-01-29T01:34:18.856Z,53.35
2023-01-29T01:35:18.844Z,55.91
2023-01-29T01:36:18.814Z,54.48
2023-01-29T01:37:18.777Z,50.39
2023-01-29T01:38:18.772Z,50.33
2023-01-29T01:39:18.769Z,51.47
2023-01-29T01:40:19.089Z,55.63
2023-01-29T01:41:18.708Z,57.63
2023-01-29T01:42:18.704Z,54.71
2023-01-29T01:43:18.662Z,55.91
2023-01-29T01:44:18.687Z,54.02
2023-01-29T01:45:18.629Z,54.63
2023-01-29T01:46:18.617Z,53.87
2023-01-29T01:47:18.611Z,56.46
2023-01-29T01:48:18.592Z,55.41
2023-01-29T01:49:18.597Z,56.07
2023-01-29T01:50:18.748Z,56.03
2023-01-29T01:51:18.525Z,56.85
2023-01-29T01:52:18.512Z,54.63
2023-01-29T01:53:18.529Z,51.79
2023-01-29T01:54:18.519Z,54.64
2023-01-29T01:55:18.504Z,53.71
2023-01-29T01:56:18.449Z,53.64
2023-01-29T01:57:18.447Z,57.12
2023-01-29T01:58:18.430Z,53.77
2023-01-29T01:59:18.433Z,55.03
2023-01-29T02:00:18.587Z,54.82
2023-01-29T02:01:18.418Z,53.38
2023-01-29T02:02:18.396Z,49.80
2023-01-29T02:03:18.317Z,57.03
2023-01-29T02:04:18.338Z,51.45
2023-01-29T02:05:18.289Z,52.72
2023-01-29T02:06:18.269Z,51.21
2023-01-29T02:07:18.254Z,51.69
2023-01-29T02:08:18.248Z,51.74
2023-01-29T02:09:18.258Z,54.31
2023-01-29T02:10:18.490Z,55.04
2023-01-29T02:11:18.179Z,50.89
2023-01-29T02:12:19.167Z,53.20
2023-01-29T02:13:18.165Z,55.91
2023-01-29T02:14:18.175Z,56.35
2023-01-29T02:15:18.104Z,52.81
2023-01-29T02:16:19.160Z,55.71
2023-01-29T02:17:18.108Z,55.00
2023-01-29T02:18:18.066Z,53.03
2023-01-29T02:19:18.095Z,58.97
2023-01-29T02:20:18.483Z,56.08
2023-01-29T02:21:18.009Z,51.44
2023-01-29T02:22:18.011Z,55.16
2023-01-29T02:23:17.970Z,48.67
2023-01-29T02:24:18.044Z,53.38
2023-01-29T02:25:17.933Z,54.15
2023-01-29T02:26:17.923Z,57.24
2023-01-29T02:27:17.897Z,54.32
2023-01-29T02:28:17.883Z,56.51
2023-01-29T02:29:17.896Z,59.23
2023-01-29T02:30:18.235Z,56.42
2023-01-29T02:31:17.861Z,54.33
2023-01-29T02:32:17.814Z,51.74
2023-01-29T02:33:17.809Z,53.73
2023-01-29T02:34:17.822Z,54.77
2023-01-29T02:35:17.780Z,55.57
2023-01-29T02:36:17.757Z,55.85
2023-01-29T02:37:17.735Z,55.11
2023-01-29T02:38:17.709Z,56.16
2023-01-29T02:39:17.718Z,55.66
2023-01-29T02:40:17.940Z,56.27
2023-01-29T02:41:17.664Z,57.63
2023-01-29T02:42:17.640Z,57.26
2023-01-29T02:43:17.621Z,59.65
2023-01-29T02:44:17.627Z,59.42
2023-01-29T02:45:17.594Z,57.30
2023-01-29T02:46:17.590Z,58.04
2023-01-29T02:47:17.553Z,55.09
2023-01-29T02:48:17.545Z,59.39
2023-01-29T02:49:17.587Z,56.20
2023-01-29T02:50:17.854Z,53.87
2023-01-29T02:51:17.486Z,53.54
2023-01-29T02:52:17.493Z,57.95
2023-01-29T02:53:17.487Z,57.29
2023-01-29T02:54:17.457Z,59.12
2023-01-29T02:55:17.419Z,55.64
2023-01-29T02:56:17.403Z,55.97
2023-01-29T02:57:17.384Z,55.17
2023-01-29T02:58:17.366Z,56.43
2023-01-29T02:59:17.377Z,59.01
2023-01-29T03:00:17.695Z,58.76
2023-01-29T03:01:17.374Z,59.38
2023-01-29T03:02:17.320Z,58.06
2023-01-29T03:03:17.356Z,56.76
2023-01-29T03:04:17.318Z,58.47
2023-01-29T03:05:17.252Z,59.84
2023-01-29T03:06:17.253Z,58.55
2023-01-29T03:07:17.195Z,56.29
2023-01-29T03:08:17.189Z,55.99
2023-01-29T03:09:17.210Z,55.48
2023-01-29T03:10:17.509Z,51.56
2023-01-29T03:11:17.155Z,53.77
2023-01-29T03:12:19.492Z,53.64
2023-01-29T03:13:18.093Z,59.46
2023-01-29T03:14:17.112Z,56.52
2023-01-29T03:15:17.080Z,55.04
2023-01-29T03:16:17.064Z,55.69
2023-01-29T03:17:17.048Z,58.18
2023-01-29T03:18:17.013Z,56.87
2023-01-29T03:19:17.006Z,56.73
2023-01-29T03:20:17.413Z,56.13
2023-01-29T03:21:16.959Z,57.87
2023-01-29T03:22:16.957Z,55.87
2023-01-29T03:23:16.923Z,57.13
2023-01-29T03:24:16.961Z,57.19
2023-01-29T03:25:16.920Z,57.25
2023-01-29T03:26:16.889Z,57.93
2023-01-29T03:27:16.850Z,56.18
2023-01-29T03:28:16.848Z,56.29
2023-01-29T03:29:16.824Z,61.17
2023-01-29T03:30:17.138Z,56.25
2023-01-29T03:31:16.897Z,56.82
2023-01-29T03:32:16.794Z,56.72
2023-01-29T03:33:16.749Z,59.46
2023-01-29T03:34:16.752Z,59.43
2023-01-29T03:35:16.749Z,58.42
2023-01-29T03:36:16.715Z,55.10
2023-01-29T03:37:16.689Z,56.55
2023-01-29T03:38:16.667Z,55.32
2023-01-29T03:39:16.682Z,57.92
2023-01-29T03:40:16.974Z,57.59
2023-01-29T03:41:16.611Z,60.23
2023-01-29T03:42:16.614Z,59.77
2023-01-29T03:43:16.572Z,59.33
2023-01-29T03:44:16.555Z,58.94
2023-01-29T03:45:16.574Z,56.44
2023-01-29T03:46:16.522Z,55.90
2023-01-29T03:47:16.517Z,53.90
2023-01-29T03:48:16.492Z,56.74
2023-01-29T03:49:16.474Z,56.39
2023-01-29T03:50:16.837Z,57.79
2023-01-29T03:51:16.460Z,54.58
2023-01-29T03:52:16.435Z,57.77
2023-01-29T03:53:16.419Z,55.99
2023-01-29T03:54:16.388Z,55.20
2023-01-29T03:55:16.403Z,53.69
2023-01-29T03:56:16.355Z,52.06
2023-01-29T03:57:17.365Z,58.63
2023-01-29T03:58:16.331Z,59.00
2023-01-29T03:59:16.324Z,58.59
2023-01-29T04:00:16.625Z,57.54
2023-01-29T04:01:16.300Z,57.50
2023-01-29T04:02:16.255Z,59.36
2023-01-29T04:03:16.228Z,59.08
2023-01-29T04:04:17.277Z,58.20
2023-01-29T04:05:16.241Z,62.21
2023-01-29T04:06:16.201Z,61.87
2023-01-29T04:07:16.171Z,58.19
2023-01-29T04:08:16.158Z,56.38
2023-01-29T04:09:16.183Z,60.75
2023-01-29T04:10:16.481Z,59.88
2023-01-29T04:11:16.117Z,57.72
2023-01-29T04:12:16.102Z,55.95
2023-01-29T04:13:16.063Z,59.21
2023-01-29T04:14:16.053Z,59.04
2023-01-29T04:15:16.063Z,57.31
2023-01-29T04:16:16.074Z,60.44
2023-01-29T04:17:17.004Z,60.55
2023-01-29T04:18:15.974Z,59.32
2023-01-29T04:19:15.958Z,63.49
2023-01-29T04:20:16.333Z,62.55
2023-01-29T04:21:15.942Z,62.13
2023-01-29T04:22:15.917Z,60.46
2023-01-29T04:23:15.899Z,62.00
2023-01-29T04:24:15.921Z,60.93
2023-01-29T04:25:15.958Z,61.21
2023-01-29T04:26:15.837Z,60.48
2023-01-29T04:27:15.826Z,60.85
2023-01-29T04:28:15.823Z,62.16
2023-01-29T04:29:15.789Z,60.31
2023-01-29T04:30:16.125Z,61.24
2023-01-29T04:31:15.798Z,60.64
2023-01-29T04:32:15.740Z,61.18
2023-01-29T04:33:15.721Z,59.41
2023-01-29T04:34:15.722Z,60.62
2023-01-29T04:35:15.726Z,61.12
2023-01-29T04:36:15.676Z,59.82
2023-01-29T04:37:15.707Z,62.18
2023-01-29T04:38:15.639Z,61.77
2023-01-29T04:39:15.616Z,60.80
2023-01-29T04:40:15.954Z,60.40
2023-01-29T04:41:15.573Z,60.01
2023-01-29T04:42:15.571Z,60.16
2023-01-29T04:43:15.545Z,61.51
2023-01-29T04:44:15.530Z,59.86
2023-01-29T04:45:15.544Z,59.04
2023-01-29T04:46:15.494Z,59.61
2023-01-29T04:47:15.515Z,60.77
2023-01-29T04:48:15.456Z,59.51
2023-01-29T04:49:15.467Z,60.47
2023-01-29T04:50:15.709Z,61.13
2023-01-29T04:51:15.434Z,61.87
2023-01-29T04:52:15.399Z,60.60
2023-01-29T04:53:15.401Z,58.91
2023-01-29T04:54:15.395Z,59.09
2023-01-29T04:55:15.409Z,59.64
2023-01-29T04:56:15.328Z,62.18
2023-01-29T04:57:15.532Z,56.81
2023-01-29T04:58:15.296Z,55.74
2023-01-29T04:59:15.297Z,57.96
2023-01-29T05:00:15.605Z,60.71
2023-01-29T05:01:15.248Z,56.83
2023-01-29T05:02:15.225Z,56.80
2023-01-29T05:03:15.215Z,57.78
2023-01-29T05:04:15.208Z,58.77
2023-01-29T05:05:15.201Z,57.07
2023-01-29T05:06:15.140Z,57.21
2023-01-29T05:07:15.127Z,57.74
2023-01-29T05:08:15.111Z,63.66
2023-01-29T05:09:15.115Z,56.31
2023-01-29T05:10:15.469Z,56.68
2023-01-29T05:11:15.067Z,56.46
2023-01-29T05:12:15.030Z,56.98
2023-01-29T05:13:15.022Z,59.35
2023-01-29T05:14:15.017Z,60.92
2023-01-29T05:15:15.074Z,60.99
2023-01-29T05:16:14.998Z,59.12
2023-01-29T05:17:14.951Z,59.25
2023-01-29T05:18:14.956Z,58.73
2023-01-29T05:19:14.925Z,63.04
2023-01-29T05:20:15.385Z,62.01
2023-01-29T05:21:15.917Z,59.92
2023-01-29T05:22:14.876Z,57.53
2023-01-29T05:23:14.862Z,58.07
2023-01-29T05:24:14.909Z,58.74
2023-01-29T05:25:14.845Z,59.20
2023-01-29T05:26:14.801Z,60.53
2023-01-29T05:27:14.781Z,57.37
2023-01-29T05:28:14.776Z,57.44
2023-01-29T05:29:14.746Z,57.95
2023-01-29T05:30:15.185Z,56.68
2023-01-29T05:31:14.846Z,57.44
2023-01-29T05:32:14.696Z,59.01
2023-01-29T05:33:14.702Z,59.26
2023-01-29T05:34:14.653Z,61.24
2023-01-29T05:35:14.672Z,60.25
2023-01-29T05:36:14.632Z,58.92
2023-01-29T05:37:14.615Z,58.81
2023-01-29T05:38:14.587Z,57.95
2023-01-29T05:39:14.575Z,58.10
2023-01-29T05:40:14.892Z,54.93
2023-01-29T05:41:14.542Z,56.30
2023-01-29T05:42:14.510Z,59.14
2023-01-29T05:43:14.507Z,61.36
2023-01-29T05:44:14.478Z,62.09
2023-01-29T05:45:14.481Z,62.31
2023-01-29T05:46:14.514Z,59.34
2023-01-29T05:47:14.436Z,58.92
2023-01-29T05:48:14.401Z,60.60
2023-01-29T05:49:14.393Z,61.11
2023-01-29T05:50:14.536Z,61.65
2023-01-29T05:51:14.361Z,58.45
2023-01-29T05:52:14.347Z,57.41
2023-01-29T05:53:14.319Z,63.31
2023-01-29T05:54:14.291Z,59.01
2023-01-29T05:55:14.323Z,59.25
2023-01-29T05:56:14.279Z,59.16
2023-01-29T05:57:14.240Z,59.00
2023-01-29T05:58:14.238Z,58.72
2023-01-29T05:59:14.211Z,60.76
2023-01-29T06:00:14.464Z,57.88
2023-01-29T06:01:14.185Z,58.79
2023-01-29T06:02:14.165Z,59.36
2023-01-29T06:03:14.211Z,54.99
2023-01-29T06:04:14.130Z,59.77
2023-01-29T06:05:15.160Z,61.42
2023-01-29T06:06:14.099Z,60.33
2023-01-29T06:07:14.079Z,58.11
2023-01-29T06:08:14.083Z,60.62
2023-01-29T06:09:14.044Z,60.98
2023-01-29T06:10:14.286Z,58.33
2023-01-29T06:11:14.037Z,59.53
2023-01-29T06:12:13.989Z,57.35
2023-01-29T06:13:13.972Z,57.87
2023-01-29T06:14:13.960Z,57.63
2023-01-29T06:15:13.960Z,61.22
2023-01-29T06:16:13.976Z,55.82
2023-01-29T06:17:14.899Z,57.09
2023-01-29T06:18:13.884Z,57.99
2023-01-29T06:19:13.872Z,57.21
2023-01-29T06:20:14.205Z,59.50
2023-01-29T06:21:13.865Z,59.24
2023-01-29T06:22:13.807Z,56.89
2023-01-29T06:23:13.804Z,57.89
2023-01-29T06:24:13.804Z,59.78
2023-01-29T06:25:13.796Z,58.05
2023-01-29T06:26:13.751Z,61.96
2023-01-29T06:27:13.743Z,60.80
2023-01-29T06:28:13.715Z,59.99
2023-01-29T06:29:13.702Z,58.69
2023-01-29T06:30:13.718Z,60.64
2023-01-29T06:31:35.274Z,59.94
2023-01-29T06:32:15.805Z,58.28
2023-01-29T06:33:13.619Z,61.37
2023-01-29T06:34:13.616Z,61.73
2023-01-29T06:35:13.586Z,59.34
2023-01-29T06:36:13.613Z,54.92
2023-01-29T06:37:13.547Z,56.69
2023-01-29T06:38:13.555Z,58.52
2023-01-29T06:39:13.529Z,57.00
2023-01-29T06:40:13.507Z,58.92
2023-01-29T06:41:13.529Z,59.95
2023-01-29T06:42:13.477Z,59.07
2023-01-29T06:43:13.466Z,56.35
2023-01-29T06:44:13.438Z,60.06
2023-01-29T06:45:13.417Z,57.85
2023-01-29T06:46:13.445Z,58.42
2023-01-29T06:47:13.374Z,58.97
2023-01-29T06:48:13.376Z,59.75
2023-01-29T06:49:13.361Z,57.95
2023-01-29T06:50:13.405Z,58.94
2023-01-29T06:51:13.362Z,58.30
2023-01-29T06:52:13.293Z,56.77
2023-01-29T06:53:13.262Z,56.69
2023-01-29T06:54:13.252Z,60.36
2023-01-29T06:55:47.794Z,57.65
2023-01-29T06:56:13.237Z,60.63
2023-01-29T06:57:13.206Z,58.88
2023-01-29T06:58:13.189Z,59.03
2023-01-29T06:59:13.184Z,58.69
2023-01-29T07:00:13.187Z,57.57
2023-01-29T07:01:29.069Z,60.75
2023-01-29T07:02:15.133Z,61.75
2023-01-29T07:03:13.129Z,61.95
2023-01-29T07:04:13.090Z,58.51
2023-01-29T07:05:13.084Z,60.81
2023-01-29T07:06:13.085Z,62.72
2023-01-29T07:07:13.082Z,59.97
2023-01-29T07:08:13.019Z,61.31
2023-01-29T07:09:13.005Z,57.49
2023-01-29T07:10:13.021Z,60.06
2023-01-29T07:11:13.022Z,62.43
2023-01-29T07:12:12.971Z,60.36
2023-01-29T07:13:12.940Z,59.91
2023-01-29T07:14:12.933Z,59.26
2023-01-29T07:15:12.947Z,57.44
2023-01-29T07:16:12.936Z,63.33
2023-01-29T07:17:12.879Z,57.84
2023-01-29T07:18:12.848Z,59.67
2023-01-29T07:19:12.831Z,62.15
2023-01-29T07:20:12.808Z,60.42
2023-01-29T07:21:12.850Z,61.58
2023-01-29T07:22:12.783Z,61.70
2023-01-29T07:23:12.812Z,63.60
2023-01-29T07:24:12.813Z,62.86
2023-01-29T07:25:12.720Z,59.37
2023-01-29T07:26:12.784Z,63.08
2023-01-29T07:27:12.694Z,62.01
2023-01-29T07:28:12.685Z,63.29
2023-01-29T07:29:12.656Z,60.70
2023-01-29T07:30:12.657Z,63.23
2023-01-29T07:31:12.752Z,62.40
2023-01-29T07:32:12.640Z,62.30
2023-01-29T07:33:12.583Z,62.21
2023-01-29T07:34:12.581Z,62.68
2023-01-29T07:35:12.558Z,63.48
2023-01-29T07:36:12.576Z,63.42
2023-01-29T07:37:12.526Z,63.40
2023-01-29T07:38:13.510Z,62.80
2023-01-29T07:39:12.498Z,62.56
2023-01-29T07:40:12.467Z,61.05
2023-01-29T07:41:12.476Z,61.63
2023-01-29T07:42:12.429Z,63.63
2023-01-29T07:43:12.422Z,63.98
2023-01-29T07:44:12.395Z,62.56
2023-01-29T07:45:12.395Z,61.92
2023-01-29T07:46:12.472Z,61.70
2023-01-29T07:47:12.351Z,61.19
2023-01-29T07:48:12.331Z,61.78
2023-01-29T07:49:12.311Z,63.11
2023-01-29T07:50:12.326Z,63.14
2023-01-29T07:51:12.315Z,61.56
2023-01-29T07:52:12.269Z,63.07
2023-01-29T07:53:12.242Z,61.02
2023-01-29T07:54:12.245Z,60.79
2023-01-29T07:55:12.207Z,62.71
2023-01-29T07:56:12.256Z,63.60
2023-01-29T07:57:12.207Z,62.39
2023-01-29T07:58:12.160Z,61.96
2023-01-29T07:59:12.125Z,62.64
2023-01-29T08:00:12.121Z,63.58
2023-01-29T08:01:12.200Z,62.20
2023-01-29T08:02:12.152Z,62.13
2023-01-29T08:03:12.100Z,61.52
2023-01-29T08:04:12.052Z,60.57
2023-01-29T08:05:12.020Z,63.66
2023-01-29T08:06:12.038Z,60.99
2023-01-29T08:07:11.988Z,62.27
2023-01-29T08:08:11.976Z,62.77
2023-01-29T08:09:11.964Z,58.82
2023-01-29T08:10:11.953Z,59.37
2023-01-29T08:11:11.953Z,60.30
2023-01-29T08:12:11.907Z,62.11
2023-01-29T08:13:11.877Z,62.52
2023-01-29T08:14:11.871Z,62.21
2023-01-29T08:15:11.864Z,62.94
2023-01-29T08:16:11.912Z,62.20
2023-01-29T08:17:11.833Z,62.44
2023-01-29T08:18:11.802Z,62.58
2023-01-29T08:19:11.799Z,62.74
2023-01-29T08:20:11.774Z,63.55
2023-01-29T08:21:13.093Z,59.94
2023-01-29T08:22:12.739Z,63.13
2023-01-29T08:23:11.729Z,63.43
2023-01-29T08:24:11.703Z,62.02
2023-01-29T08:25:11.829Z,62.50
2023-01-29T08:26:11.706Z,63.81
2023-01-29T08:27:11.648Z,63.04
2023-01-29T08:28:11.659Z,62.45
2023-01-29T08:29:11.607Z,61.99
2023-01-29T08:30:11.611Z,62.59
2023-01-29T08:31:11.643Z,64.93
2023-01-29T08:32:11.582Z,62.94
2023-01-29T08:33:11.555Z,62.97
2023-01-29T08:34:11.522Z,65.81
2023-01-29T08:35:11.516Z,65.40
2023-01-29T08:36:11.532Z,63.91
2023-01-29T08:37:11.492Z,64.92
2023-01-29T08:38:11.462Z,65.05
2023-01-29T08:39:11.448Z,62.52
2023-01-29T08:40:11.429Z,65.44
2023-01-29T08:41:11.443Z,65.44
2023-01-29T08:42:11.393Z,63.33
2023-01-29T08:43:11.404Z,62.82
2023-01-29T08:44:11.364Z,60.94
2023-01-29T08:45:11.334Z,63.99
2023-01-29T08:46:11.397Z,63.36
2023-01-29T08:47:11.316Z,64.29
2023-01-29T08:48:11.289Z,62.72
2023-01-29T08:49:11.279Z,65.40
2023-01-29T08:50:11.264Z,63.08
2023-01-29T08:51:11.281Z,64.37
2023-01-29T08:52:11.254Z,64.12
2023-01-29T08:53:11.239Z,63.86
2023-01-29T08:54:11.195Z,63.22
2023-01-29T08:55:11.169Z,63.27
2023-01-29T08:56:11.185Z,63.39
2023-01-29T08:57:11.154Z,61.07
2023-01-29T08:58:11.113Z,63.46
2023-01-29T08:59:11.106Z,62.02
2023-01-29T09:00:11.119Z,64.40
2023-01-29T09:01:11.161Z,64.66
2023-01-29T09:02:11.108Z,62.27
2023-01-29T09:03:11.047Z,60.53
2023-01-29T09:04:11.025Z,64.76
2023-01-29T09:05:11.004Z,64.10
2023-01-29T09:06:11.024Z,63.31
2023-01-29T09:07:10.969Z,64.08
2023-01-29T09:08:10.955Z,62.53
2023-01-29T09:09:10.925Z,64.70
2023-01-29T09:10:10.925Z,63.97
2023-01-29T09:11:10.925Z,61.89
2023-01-29T09:12:10.876Z,62.72
2023-01-29T09:13:10.858Z,64.22
2023-01-29T09:14:10.846Z,64.59
2023-01-29T09:15:10.851Z,64.51
2023-01-29T09:16:10.875Z,65.76
2023-01-29T09:17:10.823Z,64.41
2023-01-29T09:18:10.796Z,65.37
2023-01-29T09:19:10.765Z,64.07
2023-01-29T09:20:10.771Z,63.68
2023-01-29T09:21:10.726Z,63.75
2023-01-29T09:22:11.867Z,63.23
2023-01-29T09:23:11.712Z,63.93
2023-01-29T09:24:10.750Z,64.28
2023-01-29T09:25:10.651Z,63.70
2023-01-29T09:26:10.661Z,63.44
2023-01-29T09:27:10.653Z,64.52
2023-01-29T09:28:10.600Z,63.82
2023-01-29T09:29:10.604Z,65.44
2023-01-29T09:30:10.562Z,65.32
2023-01-29T09:31:10.602Z,62.55
2023-01-29T09:32:10.560Z,65.14
2023-01-29T09:33:10.599Z,66.05
2023-01-29T09:34:10.526Z,63.03
2023-01-29T09:35:10.507Z,64.80
2023-01-29T09:36:10.459Z,63.57
2023-01-29T09:37:10.520Z,63.01
2023-01-29T09:38:10.441Z,65.14
2023-01-29T09:39:10.403Z,65.12
2023-01-29T09:40:10.399Z,63.58
2023-01-29T09:41:10.381Z,62.54
2023-01-29T09:42:10.439Z,63.39
2023-01-29T09:43:10.344Z,64.38
2023-01-29T09:44:10.334Z,64.79
2023-01-29T09:45:10.315Z,65.10
2023-01-29T09:46:10.332Z,65.37
2023-01-29T09:47:10.323Z,65.09
2023-01-29T09:48:10.302Z,64.73
2023-01-29T09:49:10.228Z,64.85
2023-01-29T09:50:10.239Z,63.38
2023-01-29T09:51:10.200Z,63.71
2023-01-29T09:52:10.209Z,65.12
2023-01-29T09:53:10.164Z,63.90
2023-01-29T09:54:10.154Z,62.81
2023-01-29T09:55:10.125Z,65.14
2023-01-29T09:56:10.111Z,66.31
2023-01-29T09:57:10.161Z,64.49
2023-01-29T09:58:10.073Z,65.97
2023-01-29T09:59:10.120Z,63.33
2023-01-29T10:00:10.043Z,64.97
2023-01-29T10:01:10.148Z,66.88
2023-01-29T10:02:10.130Z,65.59
2023-01-29T10:03:10.002Z,63.66
2023-01-29T10:04:11.029Z,65.48
2023-01-29T10:05:09.970Z,64.29
2023-01-29T10:06:09.935Z,63.41
2023-01-29T10:07:09.978Z,65.52
2023-01-29T10:08:09.896Z,65.68
2023-01-29T10:09:09.931Z,66.52
2023-01-29T10:10:09.883Z,65.92
2023-01-29T10:11:09.866Z,64.37
2023-01-29T10:12:09.866Z,64.41
2023-01-29T10:13:09.818Z,64.07
2023-01-29T10:14:09.815Z,63.96
2023-01-29T10:15:09.790Z,66.84
2023-01-29T10:16:09.783Z,65.92
2023-01-29T10:17:09.827Z,65.98
2023-01-29T10:18:09.743Z,64.44
2023-01-29T10:19:09.725Z,65.05
2023-01-29T10:20:09.748Z,64.22
2023-01-29T10:21:09.690Z,64.04
2023-01-29T10:22:09.703Z,64.34
2023-01-29T10:23:09.677Z,65.47
2023-01-29T10:24:09.687Z,64.44
2023-01-29T10:25:09.633Z,65.18
2023-01-29T10:26:09.648Z,65.24
2023-01-29T10:27:09.621Z,65.53
2023-01-29T10:28:09.566Z,65.33
2023-01-29T10:29:09.552Z,66.62
2023-01-29T10:30:09.543Z,65.03
2023-01-29T10:31:09.610Z,65.46
2023-01-29T10:32:09.655Z,65.24
2023-01-29T10:33:09.487Z,66.21
2023-01-29T10:34:09.470Z,66.41
2023-01-29T10:35:09.449Z,66.02
2023-01-29T10:36:09.429Z,65.91
2023-01-29T10:37:09.440Z,65.75
2023-01-29T10:38:09.389Z,65.31
2023-01-29T10:39:09.382Z,66.69
2023-01-29T10:40:09.362Z,64.76
2023-01-29T10:41:09.344Z,65.02
2023-01-29T10:42:09.373Z,65.16
2023-01-29T10:43:09.304Z,65.05
2023-01-29T10:44:09.291Z,67.05
2023-01-29T10:45:09.287Z,66.04
2023-01-29T10:46:09.279Z,67.77
2023-01-29T10:47:09.311Z,67.98
2023-01-29T10:48:09.229Z,66.19
2023-01-29T10:49:09.211Z,66.53
2023-01-29T10:50:09.200Z,65.86
2023-01-29T10:51:09.162Z,65.58
2023-01-29T10:52:09.180Z,66.84
2023-01-29T10:53:09.136Z,66.37
2023-01-29T10:54:09.138Z,66.29
2023-01-29T10:55:09.093Z,66.71
2023-01-29T10:56:21.973Z,64.04
2023-01-29T10:57:11.105Z,64.01
2023-01-29T10:58:09.042Z,65.09
2023-01-29T10:59:09.044Z,68.39
2023-01-29T11:00:09.030Z,67.00
2023-01-29T11:01:10.269Z,67.07
2023-01-29T11:02:09.025Z,66.17
2023-01-29T11:03:15.213Z,65.43
2023-01-29T11:04:10.940Z,66.01
2023-01-29T11:05:10.080Z,65.13
2023-01-29T11:06:09.905Z,65.03
2023-01-29T11:07:08.927Z,66.00
2023-01-29T11:08:08.874Z,68.19
2023-01-29T11:09:08.864Z,66.54
2023-01-29T11:10:08.889Z,67.28
2023-01-29T11:11:08.852Z,67.11
2023-01-29T11:12:08.884Z,65.62
2023-01-29T11:13:08.801Z,67.38
2023-01-29T11:14:08.772Z,66.13
2023-01-29T11:15:08.755Z,65.94
2023-01-29T11:16:08.729Z,68.06
2023-01-29T11:17:08.791Z,66.56
2023-01-29T11:18:08.719Z,66.92
2023-01-29T11:19:08.691Z,67.31
2023-01-29T11:20:08.682Z,67.62
2023-01-29T11:21:08.664Z,68.08
2023-01-29T11:22:08.669Z,68.16
2023-01-29T11:23:08.614Z,68.00
2023-01-29T11:24:08.620Z,67.07
2023-01-29T11:25:08.586Z,65.99
2023-01-29T11:26:08.671Z,68.23
2023-01-29T11:27:08.631Z,66.79
2023-01-29T11:28:08.560Z,66.96
2023-01-29T11:29:08.513Z,67.02
2023-01-29T11:30:08.561Z,67.29
2023-01-29T11:31:08.618Z,68.42
2023-01-29T11:32:08.517Z,68.79
2023-01-29T11:33:08.509Z,69.43
2023-01-29T11:34:08.443Z,67.87
2023-01-29T11:35:08.435Z,67.13
2023-01-29T11:36:08.404Z,68.01
2023-01-29T11:37:08.408Z,67.53
2023-01-29T11:38:08.416Z,68.08
2023-01-29T11:39:08.360Z,67.78
2023-01-29T11:40:08.327Z,65.61
2023-01-29T11:41:08.356Z,66.58
2023-01-29T11:42:08.327Z,65.87
2023-01-29T11:43:08.337Z,66.79
2023-01-29T11:44:08.262Z,65.63
2023-01-29T11:45:08.278Z,64.44
2023-01-29T11:46:08.238Z,66.40
2023-01-29T11:47:08.254Z,67.81
2023-01-29T11:48:08.208Z,66.14
2023-01-29T11:49:20.421Z,69.40
2023-01-29T11:50:10.222Z,67.78
2023-01-29T11:51:08.142Z,67.51
2023-01-29T11:52:08.166Z,69.00
2023-01-29T11:53:08.115Z,67.54
2023-01-29T11:54:08.098Z,67.14
2023-01-29T11:55:08.085Z,66.83
2023-01-29T11:56:08.071Z,66.56
2023-01-29T11:57:08.086Z,68.65
2023-01-29T11:58:08.035Z,67.94
2023-01-29T11:59:09.047Z,67.75
2023-01-29T12:00:07.995Z,67.47
2023-01-29T12:01:07.984Z,67.82
2023-01-29T12:02:07.973Z,67.61
2023-01-29T12:03:07.980Z,67.25
2023-01-29T12:04:07.945Z,68.18
2023-01-29T12:05:07.920Z,69.06
2023-01-29T12:06:07.980Z,69.78
2023-01-29T12:07:07.924Z,69.11
2023-01-29T12:08:07.865Z,66.58
2023-01-29T12:09:07.839Z,66.85
2023-01-29T12:10:07.831Z,66.73
2023-01-29T12:11:07.807Z,67.63
2023-01-29T12:12:07.834Z,67.96
2023-01-29T12:13:07.805Z,65.40
2023-01-29T12:14:07.771Z,66.60
2023-01-29T12:15:08.799Z,67.62
2023-01-29T12:16:07.735Z,68.56
2023-01-29T12:17:07.722Z,67.23
2023-01-29T12:18:07.718Z,65.88
2023-01-29T12:19:07.663Z,68.68
2023-01-29T12:20:07.657Z,67.12
2023-01-29T12:21:07.631Z,67.88
2023-01-29T12:22:07.624Z,66.67
2023-01-29T12:23:07.645Z,66.93
2023-01-29T12:24:07.594Z,67.28
2023-01-29T12:25:07.589Z,67.75
2023-01-29T12:26:07.556Z,68.33
2023-01-29T12:27:07.531Z,66.37
2023-01-29T12:28:09.490Z,67.11
2023-01-29T12:29:08.513Z,65.59
2023-01-29T12:30:07.490Z,66.25
2023-01-29T12:31:07.503Z,67.98
2023-01-29T12:32:07.461Z,66.89
2023-01-29T12:33:07.454Z,66.31
2023-01-29T12:34:07.421Z,66.43
2023-01-29T12:35:07.425Z,68.60
2023-01-29T12:36:09.295Z,66.98
2023-01-29T12:37:07.418Z,67.03
2023-01-29T12:38:07.375Z,67.21
2023-01-29T12:39:07.333Z,66.68
2023-01-29T12:40:07.332Z,65.37
2023-01-29T12:41:07.307Z,67.51
2023-01-29T12:42:07.296Z,66.87
2023-01-29T12:43:07.314Z,66.23
2023-01-29T12:44:07.292Z,66.06
2023-01-29T12:45:07.262Z,67.50
2023-01-29T12:46:07.207Z,66.84
2023-01-29T12:47:07.300Z,66.33
2023-01-29T12:48:07.215Z,66.70
2023-01-29T12:49:07.162Z,65.07
2023-01-29T12:50:07.163Z,67.34
2023-01-29T12:51:07.126Z,66.84
2023-01-29T12:52:07.113Z,65.37